Time;durP1;ratioP1;P1;durP2;ratioP2;P2;SDS_P1;SDS_P2;PMS_P1;PMS_P2;Temp;Humidity;BMP_temperature;BMP_pressure;BME280_temperature;BME280_humidity;BME280_pressure;Samples;Min_cycle;Max_cycle;Signal;HPM_P1;HPM_P2
2021/01/27 00:00:39;;;;;;;28.13;16.33;;;3.50;91.70;;;;;;5052353;28;20043;-91
2021/01/27 00:03:05;;;;;;;27.60;15.87;;;3.50;91.80;;;;;;5052597;28;20041;-93
2021/01/27 00:05:34;;;;;;;34.80;17.70;;;3.50;91.80;;;;;;5052736;28;20056;-93
2021/01/27 00:08:00;;;;;;;29.58;16.33;;;3.50;91.70;;;;;;5053835;28;20031;-92
2021/01/27 00:10:28;;;;;;;30.47;15.90;;;3.50;91.70;;;;;;5052844;28;20044;-92
2021/01/27 00:12:53;;;;;;;29.53;15.93;;;3.40;92.00;;;;;;5050284;28;20060;-93
2021/01/27 00:15:39;;;;;;;29.70;16.80;;;3.40;91.70;;;;;;5051494;28;20025;-93
2021/01/27 00:18:07;;;;;;;29.37;14.77;;;3.50;91.70;;;;;;5050641;28;20037;-93
2021/01/27 00:20:33;;;;;;;28.40;16.63;;;3.50;91.70;;;;;;5051864;28;20025;-93
2021/01/27 00:22:59;;;;;;;29.30;16.20;;;3.50;91.60;;;;;;5051636;28;20036;-93
2021/01/27 00:25:30;;;;;;;27.00;15.63;;;3.50;91.50;;;;;;5050002;28;20131;-93
2021/01/27 00:27:57;;;;;;;28.80;16.07;;;3.50;91.60;;;;;;5049416;28;20032;-93
2021/01/27 00:30:26;;;;;;;27.47;15.70;;;3.40;91.70;;;;;;5048968;28;20037;-93
2021/01/27 00:32:53;;;;;;;31.60;16.38;;;3.40;91.70;;;;;;5047171;28;20049;-93
2021/01/27 00:35:25;;;;;;;27.33;14.93;;;3.50;91.70;;;;;;5050461;28;20025;-93
2021/01/27 00:37:51;;;;;;;28.17;16.20;;;3.40;91.70;;;;;;5051428;28;20032;-93
2021/01/27 00:40:16;;;;;;;29.73;16.47;;;3.40;91.70;;;;;;5050090;28;20018;-93
2021/01/27 00:42:42;;;;;;;29.57;15.27;;;3.50;91.70;;;;;;5050318;28;20059;-91
2021/01/27 00:45:08;;;;;;;25.93;15.13;;;3.50;91.70;;;;;;5052593;28;20026;-92
2021/01/27 00:47:34;;;;;;;30.00;14.57;;;3.40;91.60;;;;;;5058153;28;20072;-90
2021/01/27 00:50:00;;;;;;;26.07;15.20;;;3.40;91.70;;;;;;5051669;28;20049;-92
2021/01/27 00:52:25;;;;;;;27.07;15.03;;;3.40;91.70;;;;;;5048920;28;20032;-92
2021/01/27 00:54:51;;;;;;;28.13;15.73;;;3.50;91.70;;;;;;5048165;28;20474;-93
2021/01/27 00:57:18;;;;;;;27.50;15.40;;;3.50;91.70;;;;;;5047488;28;20036;-92
2021/01/27 00:59:44;;;;;;;29.20;17.27;;;3.50;91.60;;;;;;5049267;28;20026;-93
2021/01/27 01:02:09;;;;;;;29.07;15.83;;;3.50;91.70;;;;;;5050797;28;20040;-92
2021/01/27 01:04:35;;;;;;;29.17;16.70;;;3.50;91.70;;;;;;5047228;28;20021;-93
2021/01/27 01:07:01;;;;;;;28.70;15.70;;;3.40;91.70;;;;;;5047137;28;20025;-91
2021/01/27 01:09:27;;;;;;;28.90;16.03;;;3.40;91.70;;;;;;5048330;28;20033;-93
2021/01/27 01:11:53;;;;;;;27.83;16.13;;;3.40;91.70;;;;;;5049613;28;20029;-90
2021/01/27 01:14:19;;;;;;;26.50;15.53;;;3.50;91.50;;;;;;5049496;28;20031;-93
2021/01/27 01:16:44;;;;;;;28.03;15.67;;;3.40;91.60;;;;;;5049657;28;20025;-90
2021/01/27 01:19:10;;;;;;;28.00;15.97;;;3.40;91.60;;;;;;5050321;28;20434;-91
2021/01/27 01:21:36;;;;;;;28.50;15.17;;;3.40;91.60;;;;;;5052309;28;20085;-90
2021/01/27 01:24:02;;;;;;;26.63;15.17;;;3.40;91.70;;;;;;5050797;28;20029;-92
2021/01/27 01:26:28;;;;;;;24.83;15.03;;;3.40;91.70;;;;;;5055812;28;20025;-89
2021/01/27 01:28:53;;;;;;;26.90;14.97;;;3.40;91.60;;;;;;5058725;28;20048;-90
2021/01/27 01:31:19;;;;;;;25.33;15.23;;;3.40;91.60;;;;;;5057940;28;20009;-91
2021/01/27 01:33:44;;;;;;;25.07;13.97;;;3.40;91.60;;;;;;5057743;28;20060;-91
2021/01/27 01:36:10;;;;;;;25.30;15.13;;;3.40;91.60;;;;;;5048614;28;20033;-93
2021/01/27 01:38:36;;;;;;;25.47;15.27;;;3.30;91.60;;;;;;5047604;28;20471;-93
2021/01/27 01:41:06;;;;;;;28.00;15.97;;;3.30;91.60;;;;;;5048680;28;20085;-93
2021/01/27 01:43:34;;;;;;;27.23;14.63;;;3.30;91.60;;;;;;5046578;28;20053;-92
2021/01/27 01:46:01;;;;;;;25.07;14.37;;;3.40;91.50;;;;;;5045592;28;20095;-92
2021/01/27 01:48:35;;;;;;;25.33;14.37;;;3.40;91.50;;;;;;5046120;28;20018;-93
2021/01/27 01:51:16;;;;;;;24.67;13.90;;;3.30;91.40;;;;;;5047323;28;20105;-93
2021/01/27 01:53:42;;;;;;;24.60;13.17;;;3.40;91.50;;;;;;5047595;28;20057;-92
2021/01/27 01:56:12;;;;;;;25.10;13.70;;;3.30;91.30;;;;;;5047621;28;20040;-92
2021/01/27 01:58:39;;;;;;;23.30;12.27;;;3.30;91.40;;;;;;5047039;28;20025;-92
2021/01/27 02:01:05;;;;;;;24.30;12.63;;;3.30;91.40;;;;;;5045815;28;20399;-93
2021/01/27 02:03:36;;;;;;;26.30;13.07;;;3.20;91.30;;;;;;5045040;28;20033;-92
2021/01/27 02:06:06;;;;;;;23.87;12.67;;;3.20;91.40;;;;;;5052327;28;20016;-93
2021/01/27 02:08:32;;;;;;;25.13;13.37;;;3.30;91.40;;;;;;5053547;28;20026;-93
2021/01/27 02:10:58;;;;;;;25.50;12.97;;;3.30;91.20;;;;;;5045593;28;20037;-93
2021/01/27 02:13:38;;;;;;;24.17;12.20;;;3.30;91.20;;;;;;5045507;28;20093;-93
2021/01/27 02:16:07;;;;;;;;;;;3.30;91.20;;;;;;5045229;28;20503;-92
2021/01/27 02:19:00;;;;;;;26.13;11.95;;;3.30;91.10;;;;;;5045377;28;19940;-93
2021/01/27 02:21:43;;;;;;;21.97;11.53;;;3.30;91.20;;;;;;5043192;28;20025;-93
2021/01/27 02:24:27;;;;;;;25.27;12.20;;;3.30;91.20;;;;;;5044687;28;20128;-93
2021/01/27 02:27:05;;;;;;;22.90;12.33;;;3.30;91.00;;;;;;5046751;28;20026;-92
2021/01/27 02:29:53;;;;;;;24.13;11.60;;;3.30;91.20;;;;;;5044126;28;20038;-93
2021/01/27 02:32:52;;;;;;;24.50;11.57;;;3.30;91.20;;;;;;5052256;28;20017;-93
2021/01/27 02:35:24;;;;;;;23.53;11.40;;;3.20;91.20;;;;;;5048868;28;20083;-92
2021/01/27 02:38:11;;;;;;;24.70;12.03;;;3.30;91.10;;;;;;5047100;28;20068;-93
2021/01/27 02:40:59;;;;;;;23.03;11.80;;;3.30;91.10;;;;;;5046745;28;20086;-93
2021/01/27 02:43:38;;;;;;;22.80;11.27;;;3.30;90.90;;;;;;5043564;28;20033;-91
2021/01/27 02:46:16;;;;;;;22.73;11.98;;;3.20;91.00;;;;;;5043899;28;20049;-92
2021/01/27 02:48:50;;;;;;;22.60;11.13;;;3.20;91.10;;;;;;5044191;28;20022;-93
2021/01/27 02:51:21;;;;;;;19.83;10.73;;;3.20;90.90;;;;;;5043588;28;20426;-93
2021/01/27 02:54:02;;;;;;;22.47;10.53;;;3.20;90.90;;;;;;5043522;28;20037;-93
2021/01/27 02:56:33;;;;;;;23.10;10.90;;;3.20;91.00;;;;;;5044299;28;20022;-93
2021/01/27 02:59:09;;;;;;;20.07;10.87;;;3.20;91.00;;;;;;5044238;28;20109;-93
2021/01/27 03:01:52;;;;;;;22.43;11.33;;;3.20;90.80;;;;;;5040336;28;20025;-93
2021/01/27 03:04:26;;;;;;;20.43;10.57;;;3.20;90.80;;;;;;5038109;28;20478;-92
2021/01/27 03:06:53;;;;;;;21.70;10.67;;;3.20;90.90;;;;;;5037700;28;20509;-93
2021/01/27 03:09:36;;;;;;;20.43;10.33;;;3.20;90.90;;;;;;5038570;28;20021;-92
2021/01/27 03:12:02;;;;;;;22.03;10.37;;;3.20;90.70;;;;;;5039304;28;20033;-93
2021/01/27 03:14:28;;;;;;;21.80;10.20;;;3.20;90.70;;;;;;5039614;28;20049;-93
2021/01/27 03:17:01;;;;;;;21.50;9.73;;;3.20;90.70;;;;;;5037929;28;20084;-92
2021/01/27 03:20:03;;;;;;;22.47;10.50;;;3.20;90.70;;;;;;5038774;28;20037;-93
2021/01/27 03:22:48;;;;;;;18.87;9.30;;;3.10;91.10;;;;;;5038718;28;20029;-94
2021/01/27 03:25:48;;;;;;;20.90;10.07;;;3.10;90.60;;;;;;5038935;28;20078;-93
2021/01/27 03:28:28;;;;;;;19.73;9.30;;;3.10;90.70;;;;;;5034098;28;20042;-91
2021/01/27 03:30:54;;;;;;;19.67;9.57;;;3.10;90.80;;;;;;5039091;28;20036;-92
2021/01/27 03:33:48;;;;;;;23.03;10.33;;;3.10;90.70;;;;;;5038696;28;20116;-92
2021/01/27 03:36:15;;;;;;;19.03;9.33;;;3.10;90.70;;;;;;5038431;28;20136;-93
2021/01/27 03:38:52;;;;;;;18.07;8.67;;;3.10;90.90;;;;;;5039318;28;20425;-92
2021/01/27 03:41:45;;;;;;;19.20;8.97;;;3.10;90.50;;;;;;5039923;28;20048;-92
2021/01/27 03:44:27;;;;;;;20.30;8.77;;;3.10;90.50;;;;;;5044364;28;20029;-94
2021/01/27 03:47:11;;;;;;;19.87;8.70;;;3.10;90.60;;;;;;5043390;28;20025;-93
2021/01/27 03:49:50;;;;;;;20.83;8.40;;;3.10;90.50;;;;;;5043973;28;20023;-93
2021/01/27 03:52:28;;;;;;;17.95;8.23;;;3.10;90.50;;;;;;5041871;28;20136;-93
2021/01/27 03:55:17;;;;;;;18.70;8.43;;;3.20;90.40;;;;;;5040790;28;20067;-92
2021/01/27 03:57:56;;;;;;;17.65;7.95;;;3.20;90.30;;;;;;5039016;28;20057;-91
2021/01/27 04:00:22;;;;;;;15.55;7.15;;;3.20;90.00;;;;;;5040820;28;20028;-93
2021/01/27 04:03:10;;;;;;;18.50;7.30;;;3.10;90.20;;;;;;5039915;28;20025;-93
2021/01/27 04:05:36;;;;;;;18.33;7.00;;;3.10;90.30;;;;;;5040483;28;20021;-93
2021/01/27 04:08:03;;;;;;;18.43;7.33;;;3.10;89.50;;;;;;5041067;28;20147;-92
2021/01/27 04:10:28;;;;;;;17.90;7.33;;;3.10;90.20;;;;;;5041466;28;20021;-93
2021/01/27 04:12:54;;;;;;;16.93;6.73;;;3.10;90.10;;;;;;5040027;28;20421;-93
2021/01/27 04:15:20;;;;;;;17.47;7.60;;;3.10;90.00;;;;;;5041269;28;20017;-92
2021/01/27 04:17:45;;;;;;;17.30;6.50;;;3.10;90.10;;;;;;5041870;28;20029;-92
2021/01/27 04:20:11;;;;;;;16.20;7.20;;;3.10;90.00;;;;;;5039169;28;20025;-92
2021/01/27 04:22:37;;;;;;;17.20;7.13;;;3.10;90.00;;;;;;5040949;28;20032;-92
2021/01/27 04:25:04;;;;;;;15.13;7.03;;;3.10;90.10;;;;;;5040074;28;20399;-93
2021/01/27 04:27:30;;;;;;;17.43;7.23;;;3.10;89.70;;;;;;5040014;28;20033;-92
2021/01/27 04:29:56;;;;;;;16.13;6.93;;;3.10;89.70;;;;;;5040278;28;20034;-92
2021/01/27 04:32:21;;;;;;;14.53;6.33;;;3.10;89.90;;;;;;5040796;28;20032;-92
2021/01/27 04:34:47;;;;;;;14.20;6.30;;;3.10;89.90;;;;;;5041115;28;20121;-92
2021/01/27 04:37:12;;;;;;;15.13;6.23;;;3.00;90.00;;;;;;5041710;28;20033;-92
2021/01/27 04:39:38;;;;;;;19.03;7.90;;;3.00;90.10;;;;;;5042315;28;20079;-92
2021/01/27 04:42:04;;;;;;;15.17;6.83;;;3.00;89.80;;;;;;5040851;28;20025;-92
2021/01/27 04:44:30;;;;;;;16.83;7.27;;;3.00;90.10;;;;;;5041623;28;20119;-92
2021/01/27 04:47:27;;;;;;;16.90;6.87;;;3.00;90.10;;;;;;5042137;28;20463;-93
2021/01/27 04:49:59;;;;;;;16.73;6.77;;;3.00;90.00;;;;;;5039586;28;20471;-93
2021/01/27 04:52:43;;;;;;;17.50;7.20;;;3.00;90.00;;;;;;5040247;28;20029;-92
2021/01/27 04:55:20;;;;;;;16.80;6.37;;;3.00;89.90;;;;;;5040279;28;20063;-91
2021/01/27 04:58:00;;;;;;;14.90;6.13;;;2.90;89.90;;;;;;5040004;28;20470;-92
2021/01/27 05:00:29;;;;;;;16.33;6.60;;;3.00;90.20;;;;;;5039908;28;20107;-92
2021/01/27 05:03:10;;;;;;;17.50;6.37;;;3.00;89.90;;;;;;5041362;28;20029;-92
2021/01/27 05:05:42;;;;;;;16.73;6.83;;;3.10;89.50;;;;;;5046071;28;20025;-92
2021/01/27 05:08:18;;;;;;;17.30;6.90;;;3.10;89.30;;;;;;5046054;28;20112;-92
2021/01/27 05:11:04;;;;;;;16.27;6.30;;;3.00;89.20;;;;;;5045515;28;20030;-93
2021/01/27 05:13:47;;;;;;;15.23;6.43;;;3.00;89.50;;;;;;5054121;28;20061;-92
2021/01/27 05:16:22;;;;;;;15.60;6.43;;;3.00;89.50;;;;;;5047865;28;20028;-92
2021/01/27 05:18:53;;;;;;;16.17;6.30;;;3.00;89.50;;;;;;5046721;28;20073;-92
2021/01/27 05:21:36;;;;;;;15.53;5.90;;;3.00;89.30;;;;;;5045651;28;20024;-93
2021/01/27 05:24:03;;;;;;;14.40;5.83;;;2.90;89.20;;;;;;5046160;28;20056;-92
2021/01/27 05:26:39;;;;;;;14.90;5.27;;;2.90;89.50;;;;;;5046947;28;20026;-92
2021/01/27 05:29:11;;;;;;;14.30;6.17;;;3.00;89.10;;;;;;5048156;28;20033;-92
2021/01/27 05:32:02;;;;;;;14.67;5.93;;;3.00;88.50;;;;;;5047430;28;20040;-93
2021/01/27 05:34:39;;;;;;;14.83;5.80;;;2.90;88.60;;;;;;5050814;28;20050;-92
2021/01/27 05:37:12;;;;;;;16.27;5.60;;;3.00;88.40;;;;;;5048105;28;20049;-93
2021/01/27 05:39:40;;;;;;;15.70;5.10;;;2.90;88.00;;;;;;5047977;28;20045;-92
2021/01/27 05:42:17;;;;;;;13.10;5.40;;;2.90;88.50;;;;;;5048010;28;20109;-92
2021/01/27 05:44:46;;;;;;;15.93;5.50;;;2.90;88.80;;;;;;5048046;28;20117;-92
2021/01/27 05:47:28;;;;;;;16.65;5.40;;;2.90;88.70;;;;;;5048823;28;20036;-92
2021/01/27 05:49:54;;;;;;;14.03;5.80;;;2.80;88.80;;;;;;5047427;28;20030;-92
2021/01/27 05:52:24;;;;;;;14.03;4.73;;;2.80;89.30;;;;;;5044728;28;20111;-92
2021/01/27 05:54:50;;;;;;;13.23;5.17;;;2.80;88.90;;;;;;5041725;28;20040;-90
2021/01/27 05:57:21;;;;;;;13.90;4.90;;;2.80;89.20;;;;;;5034674;28;20029;-91
2021/01/27 05:59:48;;;;;;;12.67;4.70;;;2.90;89.10;;;;;;5035452;28;20022;-86
2021/01/27 06:02:14;;;;;;;11.10;4.40;;;2.90;89.10;;;;;;5038767;28;20033;-87
2021/01/27 06:04:40;;;;;;;13.13;4.93;;;3.00;88.80;;;;;;5035248;28;20026;-88
2021/01/27 06:07:22;;;;;;;13.80;4.53;;;3.00;88.60;;;;;;5037182;28;20497;-86
2021/01/27 06:09:50;;;;;;;11.73;4.60;;;3.00;88.20;;;;;;5054293;28;20033;-87
2021/01/27 06:12:18;;;;;;;12.03;4.13;;;3.00;88.20;;;;;;5054209;28;20025;-88
2021/01/27 06:15:05;;;;;;;15.88;5.07;;;3.00;88.00;;;;;;5053962;28;20025;-88
2021/01/27 06:17:39;;;;;;;13.00;4.40;;;3.00;88.20;;;;;;5050024;28;20025;-88
2021/01/27 06:20:18;;;;;;;14.67;4.90;;;2.90;88.20;;;;;;5054945;28;20482;-87
2021/01/27 06:22:58;;;;;;;15.27;4.80;;;3.00;88.20;;;;;;5055839;28;20378;-87
2021/01/27 06:25:56;;;;;;;13.40;4.23;;;3.00;88.20;;;;;;5054253;28;20063;-87
2021/01/27 06:28:40;;;;;;;13.27;4.93;;;2.90;87.80;;;;;;5050676;28;20125;-88
2021/01/27 06:31:37;;;;;;;14.67;5.53;;;2.90;88.30;;;;;;5054142;28;20020;-84
2021/01/27 06:34:31;;;;;;;15.80;5.03;;;2.90;88.40;;;;;;5034088;28;20399;-84
2021/01/27 06:37:19;;;;;;;14.63;5.80;;;3.00;88.10;;;;;;5051396;28;20611;-84
2021/01/27 06:40:07;;;;;;;16.17;5.22;;;3.00;88.00;;;;;;5061764;28;20057;-84
2021/01/27 06:42:54;;;;;;;14.70;5.37;;;3.00;87.00;;;;;;5046643;28;20079;-87
2021/01/27 06:45:39;;;;;;;15.43;5.40;;;3.00;87.60;;;;;;5034957;28;20441;-87
2021/01/27 06:48:17;;;;;;;16.30;5.60;;;3.10;87.20;;;;;;5035002;28;20099;-87
2021/01/27 06:51:21;;;;;;;15.43;5.27;;;3.10;86.90;;;;;;5036145;28;20117;-87
2021/01/27 06:53:57;;;;;;;15.50;5.87;;;3.00;86.40;;;;;;5034592;28;20425;-87
2021/01/27 06:56:57;;;;;;;15.63;6.23;;;3.10;86.40;;;;;;5042253;28;20027;-87
2021/01/27 06:59:28;;;;;;;17.33;6.13;;;3.10;86.40;;;;;;5037120;28;20113;-87
2021/01/27 07:02:22;;;;;;;16.30;5.93;;;3.10;85.90;;;;;;5038911;28;20021;-88
2021/01/27 07:05:10;;;;;;;14.77;5.77;;;3.10;86.00;;;;;;5036789;28;20025;-88
2021/01/27 07:07:45;;;;;;;14.90;6.07;;;3.00;86.10;;;;;;5052089;28;20033;-88
2021/01/27 07:10:19;;;;;;;15.57;5.70;;;3.00;86.00;;;;;;5056137;28;20033;-88
2021/01/27 07:12:52;;;;;;;13.93;5.53;;;3.00;86.30;;;;;;5055364;28;20048;-88
2021/01/27 07:15:39;;;;;;;13.80;5.53;;;3.00;86.20;;;;;;5043867;28;20036;-88
2021/01/27 07:18:34;;;;;;;15.80;6.10;;;2.90;86.30;;;;;;5062316;28;20029;-88
2021/01/27 07:21:48;;;;;;;14.23;5.97;;;2.90;86.90;;;;;;5061452;28;20032;-89
2021/01/27 07:24:25;;;;;;;13.40;5.03;;;2.90;87.00;;;;;;5044247;28;20029;-87
2021/01/27 07:26:59;;;;;;;13.17;5.67;;;2.90;87.20;;;;;;5061214;28;20036;-87
2021/01/27 07:29:48;;;;;;;13.17;5.37;;;2.90;87.00;;;;;;5053564;28;20021;-87
2021/01/27 07:32:33;;;;;;;14.75;5.22;;;2.90;87.00;;;;;;5040545;28;20031;-84
2021/01/27 07:34:58;;;;;;;14.30;5.63;;;2.90;87.30;;;;;;5044710;28;20053;-86
2021/01/27 07:37:26;;;;;;;16.10;5.63;;;2.90;87.20;;;;;;5042472;28;20028;-87
2021/01/27 07:40:18;;;;;;;13.13;5.10;;;2.90;87.30;;;;;;5046086;28;20021;-86
2021/01/27 07:42:55;;;;;;;17.93;5.77;;;2.90;87.00;;;;;;5044157;28;20435;-87
2021/01/27 07:45:41;;;;;;;13.37;4.80;;;2.90;87.10;;;;;;5042847;28;20026;-86
2021/01/27 07:48:24;;;;;;;14.00;4.73;;;2.90;87.30;;;;;;5046791;28;20033;-89
2021/01/27 07:51:22;;;;;;;13.03;4.93;;;2.90;87.40;;;;;;5052490;28;20017;-89
2021/01/27 07:53:57;;;;;;;13.93;5.38;;;2.90;87.40;;;;;;5036882;28;20037;-87
2021/01/27 07:57:09;;;;;;;13.17;5.00;;;2.80;87.60;;;;;;5042613;28;20025;-87
2021/01/27 08:00:06;;;;;;;15.87;5.30;;;2.80;87.60;;;;;;5034255;28;20030;-87
2021/01/27 08:02:36;;;;;;;12.07;4.53;;;2.80;88.20;;;;;;5035306;28;20117;-87
2021/01/27 08:05:06;;;;;;;13.33;5.57;;;2.80;88.10;;;;;;5035162;28;20041;-88
2021/01/27 08:07:42;;;;;;;14.70;5.00;;;2.80;88.10;;;;;;5040004;28;20477;-88
2021/01/27 08:10:14;;;;;;;13.43;4.87;;;2.80;87.90;;;;;;5046874;28;20406;-91
2021/01/27 08:12:51;;;;;;;14.03;5.60;;;2.80;88.00;;;;;;5053138;28;20036;-90
2021/01/27 08:15:38;;;;;;;14.93;5.77;;;2.80;88.30;;;;;;5057177;28;20029;-92
2021/01/27 08:18:16;;;;;;;16.17;5.13;;;2.80;88.40;;;;;;5055947;28;20504;-91
2021/01/27 08:20:46;;;;;;;13.47;5.10;;;2.80;88.60;;;;;;5056615;28;20017;-92
2021/01/27 08:23:21;;;;;;;13.93;5.20;;;2.80;88.60;;;;;;5057611;28;20030;-90
2021/01/27 08:25:53;;;;;;;15.07;5.83;;;2.70;88.90;;;;;;5058958;28;20029;-91
2021/01/27 08:28:37;;;;;;;13.70;4.90;;;2.70;89.10;;;;;;5056229;28;20025;-88
2021/01/27 08:31:09;;;;;;;15.73;5.00;;;2.60;90.00;;;;;;5055071;28;20178;-88
2021/01/27 08:33:47;;;;;;;13.27;5.50;;;2.60;89.70;;;;;;5055822;28;20052;-89
2021/01/27 08:36:18;;;;;;;14.17;5.40;;;2.60;90.00;;;;;;5057643;28;20029;-87
2021/01/27 08:39:12;;;;;;;14.47;5.40;;;2.60;90.00;;;;;;5057254;28;20170;-87
2021/01/27 08:41:51;;;;;;;14.33;5.20;;;2.50;90.10;;;;;;5054153;28;20394;-89
2021/01/27 08:44:20;;;;;;;14.03;5.27;;;2.50;90.20;;;;;;5055566;28;20025;-88
2021/01/27 08:47:07;;;;;;;14.02;5.60;;;2.50;90.20;;;;;;5043415;28;20036;-89
2021/01/27 08:49:54;;;;;;;14.47;6.13;;;2.50;90.30;;;;;;5035923;28;20064;-89
2021/01/27 08:52:20;;;;;;;14.00;5.67;;;2.40;90.30;;;;;;5034259;28;20029;-89
2021/01/27 08:54:50;;;;;;;15.13;5.93;;;2.40;90.40;;;;;;5035037;28;20508;-90
2021/01/27 08:57:29;;;;;;;13.63;5.53;;;2.40;90.80;;;;;;5034551;28;20067;-90
2021/01/27 09:00:12;;;;;;;14.50;5.30;;;2.50;90.50;;;;;;5035742;28;20029;-90
2021/01/27 09:03:00;;;;;;;14.57;5.80;;;2.50;90.50;;;;;;5035797;28;20061;-88
2021/01/27 09:05:26;;;;;;;14.43;5.90;;;2.50;90.50;;;;;;5037809;28;20052;-89
2021/01/27 09:08:06;;;;;;;16.77;6.30;;;2.50;90.50;;;;;;5043047;28;20026;-92
2021/01/27 09:10:38;;;;;;;15.90;5.97;;;2.40;90.60;;;;;;5040537;28;20037;-91
2021/01/27 09:13:30;;;;;;;13.67;6.30;;;2.40;90.50;;;;;;5036696;28;20029;-90
2021/01/27 09:16:35;;;;;;;13.83;6.23;;;2.50;90.60;;;;;;5037593;28;20028;-80
2021/01/27 09:19:15;;;;;;;17.60;6.50;;;2.40;90.80;;;;;;5040012;28;20099;-88
2021/01/27 09:21:43;;;;;;;15.90;7.00;;;2.40;90.80;;;;;;5037442;28;20022;-89
2021/01/27 09:24:23;;;;;;;18.23;7.80;;;2.40;90.80;;;;;;5047922;28;20061;-92
2021/01/27 09:26:51;;;;;;;16.00;7.00;;;2.40;90.90;;;;;;5056929;28;20029;-89
2021/01/27 09:29:29;;;;;;;15.33;7.23;;;2.40;90.80;;;;;;5054568;28;20429;-91
2021/01/27 09:31:57;;;;;;;16.60;7.37;;;2.40;90.80;;;;;;5056122;28;20063;-92
2021/01/27 09:34:27;;;;;;;16.07;7.40;;;2.40;90.90;;;;;;5055444;28;20044;-91
2021/01/27 09:37:05;;;;;;;15.10;7.30;;;2.50;90.80;;;;;;5056534;28;20025;-90
2021/01/27 09:39:36;;;;;;;15.50;7.17;;;2.50;90.80;;;;;;5050969;28;20064;-92
2021/01/27 09:42:16;;;;;;;14.80;7.23;;;2.50;90.80;;;;;;5043798;28;20029;-89
2021/01/27 09:44:45;;;;;;;16.37;7.27;;;2.50;90.80;;;;;;5054342;28;20437;-90
2021/01/27 09:47:13;;;;;;;16.93;7.40;;;2.50;90.80;;;;;;5051056;28;20040;-89
2021/01/27 09:49:59;;;;;;;14.43;6.17;;;2.50;90.90;;;;;;5053764;28;20267;-90
2021/01/27 09:52:29;;;;;;;16.10;6.63;;;2.60;90.90;;;;;;5062455;28;20029;-92
2021/01/27 09:55:06;;;;;;;14.67;6.07;;;2.50;90.80;;;;;;5045991;22;20073;-89
2021/01/27 09:57:35;;;;;;;10.77;5.17;;;2.60;90.80;;;;;;5014978;28;20064;-88
2021/01/27 10:00:09;;;;;;;13.85;5.85;;;2.60;90.90;;;;;;5014382;28;20029;-88
2021/01/27 10:05:39;;;;;;;12.57;5.33;;;2.60;90.90;;;;;;5011782;28;20343;-87
2021/01/27 10:08:37;;;;;;;14.33;5.53;;;2.50;91.00;;;;;;5013787;28;20569;-90
2021/01/27 10:11:10;;;;;;;14.17;5.73;;;2.60;91.10;;;;;;5013388;28;20022;-87
2021/01/27 10:13:41;;;;;;;12.57;5.40;;;2.50;91.20;;;;;;5012560;28;20482;-88
2021/01/27 10:16:15;;;;;;;14.30;5.50;;;2.60;91.10;;;;;;5012434;28;20168;-89
2021/01/27 10:18:43;;;;;;;11.53;4.93;;;2.60;91.10;;;;;;5012121;28;20026;-88
2021/01/27 10:21:14;;;;;;;12.20;5.27;;;2.70;91.30;;;;;;5012535;28;20025;-87
2021/01/27 10:23:49;;;;;;;17.17;6.60;;;2.70;91.10;;;;;;5012620;28;20029;-88
2021/01/27 10:26:35;;;;;;;12.20;5.23;;;2.70;91.00;;;;;;5012186;28;20029;-89
2021/01/27 10:29:16;;;;;;;12.87;4.50;;;2.70;91.20;;;;;;5012316;28;20029;-87
2021/01/27 10:31:54;;;;;;;11.93;5.07;;;2.80;91.20;;;;;;5014363;28;20044;-88
2021/01/27 10:34:39;;;;;;;20.87;8.13;;;2.70;91.20;;;;;;4993120;28;20033;-87
2021/01/27 10:37:24;;;;;;;15.00;6.10;;;2.70;91.40;;;;;;4993019;28;20683;-87
2021/01/27 10:40:12;;;;;;;12.20;5.30;;;2.80;91.20;;;;;;4993031;28;20027;-88
2021/01/27 10:42:40;;;;;;;11.77;5.57;;;2.80;91.10;;;;;;5003230;28;20034;-88
2021/01/27 10:45:42;;;;;;;14.13;6.00;;;2.80;91.10;;;;;;4992483;28;20038;-89
2021/01/27 10:48:13;;;;;;;13.27;5.57;;;2.80;91.20;;;;;;4997614;28;20036;-88
2021/01/27 10:51:06;;;;;;;13.00;5.73;;;2.80;91.20;;;;;;5015508;28;20374;-91
2021/01/27 10:57:36;;;;;;;12.53;5.17;;;2.70;91.40;;;;;;5018989;28;20048;-90
2021/01/27 11:00:13;;;;;;;12.50;5.33;;;2.80;91.40;;;;;;5018682;28;20037;-91
2021/01/27 11:02:41;;;;;;;9.87;4.73;;;2.70;91.70;;;;;;5016577;28;20494;-89
2021/01/27 11:05:11;;;;;;;13.00;5.70;;;2.70;91.40;;;;;;5031870;28;20359;-87
2021/01/27 11:07:39;;;;;;;10.77;4.80;;;2.70;91.40;;;;;;5018660;28;20018;-88
2021/01/27 11:10:06;;;;;;;12.10;5.03;;;2.70;91.40;;;;;;5016084;28;20557;-89
2021/01/27 11:13:36;;;;;;;;;;;;;;;;;;;;;
2021/01/27 11:16:08;;;;;;;10.87;5.03;;;2.80;91.40;;;;;;5017008;28;20025;-87
2021/01/27 11:18:58;;;;;;;11.30;5.33;;;2.80;91.30;;;;;;5017176;28;20029;-89
2021/01/27 11:21:24;;;;;;;12.87;5.63;;;2.80;91.40;;;;;;5016584;28;20022;-88
2021/01/27 11:23:51;;;;;;;14.03;6.27;;;2.80;91.40;;;;;;5017481;28;20022;-88
2021/01/27 11:33:18;;;;;;;11.77;5.50;;;2.90;91.50;;;;;;4942700;29;20500;-88
2021/01/27 11:35:45;;;;;;;12.70;5.60;;;2.90;91.50;;;;;;4939959;28;20030;-89
2021/01/27 11:38:17;;;;;;;13.03;6.13;;;2.90;91.20;;;;;;4984368;28;20506;-88
2021/01/27 11:40:43;;;;;;;13.53;5.80;;;3.00;91.20;;;;;;5016207;28;20022;-87
2021/01/27 11:43:09;;;;;;;12.80;6.20;;;2.90;91.60;;;;;;5016353;28;20384;-88
2021/01/27 11:45:36;;;;;;;13.17;6.33;;;2.90;91.30;;;;;;5017656;28;20021;-88
2021/01/27 11:48:02;;;;;;;13.23;5.70;;;2.90;91.60;;;;;;5016384;28;20018;-88
2021/01/27 11:50:29;;;;;;;12.83;5.73;;;3.00;91.40;;;;;;5016998;28;20029;-88
2021/01/27 11:52:54;;;;;;;13.30;6.20;;;3.00;91.40;;;;;;5015039;28;20029;-89
2021/01/27 11:55:22;;;;;;;13.10;6.03;;;2.90;91.60;;;;;;5016092;28;20046;-88
2021/01/27 11:57:49;;;;;;;13.57;6.03;;;2.90;91.50;;;;;;5016027;28;20088;-88
2021/01/27 12:00:19;;;;;;;12.40;6.37;;;2.90;91.40;;;;;;5015849;28;20029;-89
2021/01/27 12:02:45;;;;;;;12.93;6.07;;;3.00;91.40;;;;;;5014480;28;20033;-89
2021/01/27 12:05:29;;;;;;;12.90;6.10;;;3.00;91.50;;;;;;5015290;28;20046;-88
2021/01/27 12:07:57;;;;;;;12.20;5.87;;;2.90;91.60;;;;;;5015722;28;20446;-88
2021/01/27 12:10:24;;;;;;;13.07;6.33;;;3.00;91.50;;;;;;5017230;28;20030;-88
2021/01/27 12:12:50;;;;;;;13.67;6.57;;;3.00;91.60;;;;;;5014881;28;20030;-88
2021/01/27 12:15:16;;;;;;;13.63;6.37;;;3.00;91.50;;;;;;5016985;28;20037;-88
2021/01/27 12:17:45;;;;;;;14.93;6.97;;;3.00;91.80;;;;;;5016519;28;20398;-88
2021/01/27 12:20:11;;;;;;;13.97;7.10;;;2.90;91.90;;;;;;5015036;28;20029;-88
2021/01/27 12:22:37;;;;;;;14.53;7.10;;;2.90;91.80;;;;;;5015035;28;20088;-88
2021/01/27 12:25:03;;;;;;;14.60;7.40;;;2.90;91.70;;;;;;5016884;28;20467;-89
2021/01/27 12:27:28;;;;;;;16.90;8.50;;;2.90;91.70;;;;;;5016044;28;20022;-88
2021/01/27 12:30:27;;;;;;;16.70;8.07;;;3.00;91.70;;;;;;5016546;28;20403;-89
2021/01/27 12:32:56;;;;;;;18.42;8.70;;;3.00;91.80;;;;;;5014458;28;20030;-89
2021/01/27 12:35:22;;;;;;;18.50;8.60;;;3.00;91.80;;;;;;5015026;28;20097;-89
2021/01/27 12:37:49;;;;;;;16.37;8.20;;;3.00;91.70;;;;;;5016150;28;20383;-89
2021/01/27 12:40:17;;;;;;;17.70;8.13;;;3.00;92.00;;;;;;5019833;28;20478;-89
2021/01/27 12:42:43;;;;;;;16.53;8.87;;;3.00;91.70;;;;;;5034577;28;20394;-89
2021/01/27 12:45:10;;;;;;;17.00;8.83;;;3.00;91.90;;;;;;5034671;28;20033;-89
2021/01/27 12:47:36;;;;;;;16.87;9.33;;;3.00;91.90;;;;;;5035373;28;20501;-89
2021/01/27 12:50:04;;;;;;;15.97;8.20;;;3.00;91.80;;;;;;5035026;28;20029;-89
2021/01/27 12:52:33;;;;;;;16.87;8.70;;;3.00;91.90;;;;;;5035126;28;20030;-89
2021/01/27 12:54:59;;;;;;;19.33;9.45;;;3.00;91.90;;;;;;5015727;28;20077;-88
2021/01/27 12:57:28;;;;;;;16.83;8.17;;;3.00;92.00;;;;;;5015036;28;20061;-90
2021/01/27 13:00:25;;;;;;;19.27;10.90;;;3.00;92.00;;;;;;5015305;28;20104;-89
2021/01/27 13:03:08;;;;;;;17.53;9.20;;;3.00;91.90;;;;;;5015420;28;20026;-90
2021/01/27 13:06:00;;;;;;;17.17;9.07;;;3.00;91.90;;;;;;5016028;28;20014;-89
2021/01/27 13:30:22;;;;;;;17.97;10.00;;;3.00;92.70;;;;;;5049540;28;20089;-91
2021/01/27 13:32:49;;;;;;;17.73;10.13;;;3.00;92.20;;;;;;5006371;28;20034;-91
2021/01/27 13:35:18;;;;;;;19.03;11.67;;;3.00;92.20;;;;;;4986212;28;20034;-93
2021/01/27 13:37:44;;;;;;;20.30;11.27;;;3.00;92.40;;;;;;4988980;28;20090;-92
2021/01/27 13:40:10;;;;;;;18.60;10.77;;;3.00;92.30;;;;;;4991102;28;20023;-92
2021/01/27 13:42:36;;;;;;;19.47;12.07;;;3.00;92.10;;;;;;4993077;28;20011;-92
2021/01/27 13:45:06;;;;;;;20.63;11.77;;;3.10;92.00;;;;;;4994281;28;20026;-92
2021/01/27 13:47:33;;;;;;;19.70;12.00;;;3.10;92.50;;;;;;4998135;28;20026;-92
2021/01/27 13:49:59;;;;;;;21.63;12.23;;;3.10;92.30;;;;;;4988430;28;20023;-93
2021/01/27 13:52:25;;;;;;;20.37;12.47;;;3.00;92.50;;;;;;4986841;28;20037;-93
2021/01/27 13:54:50;;;;;;;20.37;12.60;;;3.00;92.30;;;;;;4990891;28;20066;-92
2021/01/27 13:57:16;;;;;;;22.60;14.03;;;3.00;92.50;;;;;;4986250;28;20126;-92
2021/01/27 13:59:41;;;;;;;25.13;14.47;;;3.10;93.10;;;;;;4988017;28;20168;-92